sensor_id;sensor_type;location;lat;lon;timestamp;temperature;humidity
9107;DHT22;4589;48.690;8.952;2024-03-06T00:01:33;2.70;99.90
9107;DHT22;4589;48.690;8.952;2024-03-06T00:03:59;2.70;99.90
9107;DHT22;4589;48.690;8.952;2024-03-06T00:06:25;2.80;99.90
9107;DHT22;4589;48.690;8.952;2024-03-06T00:08:50;2.90;99.90
9107;DHT22;4589;48.690;8.952;2024-03-06T00:11:16;2.90;99.90
9107;DHT22;4589;48.690;8.952;2024-03-06T00:13:42;2.90;99.90
9107;DHT22;4589;48.690;8.952;2024-03-06T00:16:08;2.90;99.90
9107;DHT22;4589;48.690;8.952;2024-03-06T00:18:34;2.90;99.90
9107;DHT22;4589;48.690;8.952;2024-03-06T00:21:00;2.80;99.90
9107;DHT22;4589;48.690;8.952;2024-03-06T00:23:25;2.80;99.90
9107;DHT22;4589;48.690;8.952;2024-03-06T00:25:51;2.80;99.90
9107;DHT22;4589;48.690;8.952;2024-03-06T00:28:17;2.80;99.90
9107;DHT22;4589;48.690;8.952;2024-03-06T00:30:42;2.80;99.90
9107;DHT22;4589;48.690;8.952;2024-03-06T00:33:08;2.80;99.90
9107;DHT22;4589;48.690;8.952;2024-03-06T00:35:33;2.80;99.90
9107;DHT22;4589;48.690;8.952;2024-03-06T00:37:59;2.80;99.90
9107;DHT22;4589;48.690;8.952;2024-03-06T00:40:28;2.80;99.90
9107;DHT22;4589;48.690;8.952;2024-03-06T00:42:56;2.80;99.90
9107;DHT22;4589;48.690;8.952;2024-03-06T00:45:22;2.80;99.90
9107;DHT22;4589;48.690;8.952;2024-03-06T00:47:48;2.80;99.90
9107;DHT22;4589;48.690;8.952;2024-03-06T00:50:13;2.80;99.90
9107;DHT22;4589;48.690;8.952;2024-03-06T00:52:39;2.80;99.90
9107;DHT22;4589;48.690;8.952;2024-03-06T00:55:05;2.80;99.90
9107;DHT22;4589;48.690;8.952;2024-03-06T00:57:31;2.80;99.90
9107;DHT22;4589;48.690;8.952;2024-03-06T00:59:57;2.70;99.90
9107;DHT22;4589;48.690;8.952;2024-03-06T01:02:22;2.80;99.90
9107;DHT22;4589;48.690;8.952;2024-03-06T01:04:48;2.80;99.90
9107;DHT22;4589;48.690;8.952;2024-03-06T01:07:13;2.60;99.90
9107;DHT22;4589;48.690;8.952;2024-03-06T01:09:39;2.60;99.90
9107;DHT22;4589;48.690;8.952;2024-03-06T01:12:04;2.60;99.90
9107;DHT22;4589;48.690;8.952;2024-03-06T01:14:31;2.60;99.90
9107;DHT22;4589;48.690;8.952;2024-03-06T01:16:56;2.60;99.90
9107;DHT22;4589;48.690;8.952;2024-03-06T01:19:22;2.50;99.90
9107;DHT22;4589;48.690;8.952;2024-03-06T01:21:48;2.50;99.90
9107;DHT22;4589;48.690;8.952;2024-03-06T01:24:14;2.50;99.90
9107;DHT22;4589;48.690;8.952;2024-03-06T01:26:39;2.50;99.90
9107;DHT22;4589;48.690;8.952;2024-03-06T01:29:06;2.50;99.90
9107;DHT22;4589;48.690;8.952;2024-03-06T01:31:31;2.50;99.90
9107;DHT22;4589;48.690;8.952;2024-03-06T01:33:57;2.40;99.90
9107;DHT22;4589;48.690;8.952;2024-03-06T01:36:23;2.40;99.90
9107;DHT22;4589;48.690;8.952;2024-03-06T01:38:48;2.50;99.90
9107;DHT22;4589;48.690;8.952;2024-03-06T01:41:14;2.60;99.90
9107;DHT22;4589;48.690;8.952;2024-03-06T01:43:40;2.70;99.90
9107;DHT22;4589;48.690;8.952;2024-03-06T01:46:06;2.70;99.90
9107;DHT22;4589;48.690;8.952;2024-03-06T01:48:32;2.70;99.90
9107;DHT22;4589;48.690;8.952;2024-03-06T01:51:01;2.60;99.90
9107;DHT22;4589;48.690;8.952;2024-03-06T01:53:29;2.60;99.90
9107;DHT22;4589;48.690;8.952;2024-03-06T01:55:56;2.60;99.90
9107;DHT22;4589;48.690;8.952;2024-03-06T01:58:23;2.50;99.90
9107;DHT22;4589;48.690;8.952;2024-03-06T02:00:50;2.50;99.90
9107;DHT22;4589;48.690;8.952;2024-03-06T02:03:16;2.50;99.90
9107;DHT22;4589;48.690;8.952;2024-03-06T02:05:42;2.50;99.90
9107;DHT22;4589;48.690;8.952;2024-03-06T02:08:08;2.50;99.90
9107;DHT22;4589;48.690;8.952;2024-03-06T02:10:34;2.60;99.90
9107;DHT22;4589;48.690;8.952;2024-03-06T02:13:00;2.60;99.90
9107;DHT22;4589;48.690;8.952;2024-03-06T02:15:26;2.60;99.90
9107;DHT22;4589;48.690;8.952;2024-03-06T02:17:51;2.60;99.90
9107;DHT22;4589;48.690;8.952;2024-03-06T02:20:23;2.60;99.90
9107;DHT22;4589;48.690;8.952;2024-03-06T02:22:50;2.60;99.90
9107;DHT22;4589;48.690;8.952;2024-03-06T02:25:16;2.60;99.90
9107;DHT22;4589;48.690;8.952;2024-03-06T02:27:42;2.50;99.90
9107;DHT22;4589;48.690;8.952;2024-03-06T02:30:09;2.50;99.90
9107;DHT22;4589;48.690;8.952;2024-03-06T02:32:34;2.50;99.90
9107;DHT22;4589;48.690;8.952;2024-03-06T02:35:03;2.50;99.90
9107;DHT22;4589;48.690;8.952;2024-03-06T02:37:33;2.50;99.90
9107;DHT22;4589;48.690;8.952;2024-03-06T02:39:59;2.60;99.90
9107;DHT22;4589;48.690;8.952;2024-03-06T02:42:26;2.70;99.90
9107;DHT22;4589;48.690;8.952;2024-03-06T02:44:51;2.70;99.90
9107;DHT22;4589;48.690;8.952;2024-03-06T02:47:17;2.70;99.90
9107;DHT22;4589;48.690;8.952;2024-03-06T02:49:43;2.70;99.90
9107;DHT22;4589;48.690;8.952;2024-03-06T02:52:08;2.60;99.90
9107;DHT22;4589;48.690;8.952;2024-03-06T02:54:34;2.60;99.90
9107;DHT22;4589;48.690;8.952;2024-03-06T02:56:59;2.60;99.90
9107;DHT22;4589;48.690;8.952;2024-03-06T02:59:25;2.60;99.90
9107;DHT22;4589;48.690;8.952;2024-03-06T03:01:51;2.60;99.90
9107;DHT22;4589;48.690;8.952;2024-03-06T03:04:18;2.60;99.90
9107;DHT22;4589;48.690;8.952;2024-03-06T03:06:43;2.60;99.90
9107;DHT22;4589;48.690;8.952;2024-03-06T03:09:09;2.60;99.90
9107;DHT22;4589;48.690;8.952;2024-03-06T03:11:37;2.60;99.90
9107;DHT22;4589;48.690;8.952;2024-03-06T03:14:03;2.60;99.90
9107;DHT22;4589;48.690;8.952;2024-03-06T03:16:28;2.60;99.90
9107;DHT22;4589;48.690;8.952;2024-03-06T03:18:55;2.70;99.90
9107;DHT22;4589;48.690;8.952;2024-03-06T03:21:21;2.70;99.90
9107;DHT22;4589;48.690;8.952;2024-03-06T03:23:47;2.70;99.90
9107;DHT22;4589;48.690;8.952;2024-03-06T03:26:14;2.70;99.90
9107;DHT22;4589;48.690;8.952;2024-03-06T03:28:39;2.80;99.90
9107;DHT22;4589;48.690;8.952;2024-03-06T03:31:08;2.70;99.90
9107;DHT22;4589;48.690;8.952;2024-03-06T03:33:35;2.80;99.90
9107;DHT22;4589;48.690;8.952;2024-03-06T03:36:04;2.80;99.90
9107;DHT22;4589;48.690;8.952;2024-03-06T03:38:31;2.80;99.90
9107;DHT22;4589;48.690;8.952;2024-03-06T03:40:56;2.80;99.90
9107;DHT22;4589;48.690;8.952;2024-03-06T03:43:22;3.90;99.90
9107;DHT22;4589;48.690;8.952;2024-03-06T03:45:47;2.90;99.90
9107;DHT22;4589;48.690;8.952;2024-03-06T03:48:13;2.90;99.90
9107;DHT22;4589;48.690;8.952;2024-03-06T03:50:38;2.80;99.90
9107;DHT22;4589;48.690;8.952;2024-03-06T03:53:04;2.80;99.90
9107;DHT22;4589;48.690;8.952;2024-03-06T03:55:29;2.80;99.90
9107;DHT22;4589;48.690;8.952;2024-03-06T03:57:55;2.80;99.90
9107;DHT22;4589;48.690;8.952;2024-03-06T04:00:22;2.80;99.90
9107;DHT22;4589;48.690;8.952;2024-03-06T04:02:47;2.80;99.90
9107;DHT22;4589;48.690;8.952;2024-03-06T04:05:13;2.80;99.90
9107;DHT22;4589;48.690;8.952;2024-03-06T04:07:40;2.80;99.90
9107;DHT22;4589;48.690;8.952;2024-03-06T04:10:06;2.80;99.90
9107;DHT22;4589;48.690;8.952;2024-03-06T04:12:32;2.80;99.90
9107;DHT22;4589;48.690;8.952;2024-03-06T04:14:58;2.80;99.90
9107;DHT22;4589;48.690;8.952;2024-03-06T04:17:23;2.70;99.90
9107;DHT22;4589;48.690;8.952;2024-03-06T04:19:50;2.70;99.90
9107;DHT22;4589;48.690;8.952;2024-03-06T04:22:19;2.70;99.90
9107;DHT22;4589;48.690;8.952;2024-03-06T04:24:44;2.80;99.90
9107;DHT22;4589;48.690;8.952;2024-03-06T04:27:10;2.80;99.90
9107;DHT22;4589;48.690;8.952;2024-03-06T04:29:36;2.80;99.90
9107;DHT22;4589;48.690;8.952;2024-03-06T04:32:01;2.80;99.90
9107;DHT22;4589;48.690;8.952;2024-03-06T04:34:27;2.80;99.90
9107;DHT22;4589;48.690;8.952;2024-03-06T04:36:52;2.80;99.90
9107;DHT22;4589;48.690;8.952;2024-03-06T04:39:18;2.80;99.90
9107;DHT22;4589;48.690;8.952;2024-03-06T04:41:44;2.80;99.90
9107;DHT22;4589;48.690;8.952;2024-03-06T04:44:09;2.80;99.90
9107;DHT22;4589;48.690;8.952;2024-03-06T04:46:35;2.90;99.90
9107;DHT22;4589;48.690;8.952;2024-03-06T04:49:00;2.90;99.90
9107;DHT22;4589;48.690;8.952;2024-03-06T04:51:26;2.90;99.90
9107;DHT22;4589;48.690;8.952;2024-03-06T04:53:51;3.00;99.90
9107;DHT22;4589;48.690;8.952;2024-03-06T04:56:17;3.00;99.90
9107;DHT22;4589;48.690;8.952;2024-03-06T04:58:44;3.00;99.90
9107;DHT22;4589;48.690;8.952;2024-03-06T05:01:11;3.00;99.90
9107;DHT22;4589;48.690;8.952;2024-03-06T05:03:37;3.00;99.90
9107;DHT22;4589;48.690;8.952;2024-03-06T05:06:06;3.00;99.90
9107;DHT22;4589;48.690;8.952;2024-03-06T05:08:32;3.00;99.90
9107;DHT22;4589;48.690;8.952;2024-03-06T05:11:00;3.00;99.90
9107;DHT22;4589;48.690;8.952;2024-03-06T05:13:26;3.00;99.90
9107;DHT22;4589;48.690;8.952;2024-03-06T05:15:52;3.00;99.90
9107;DHT22;4589;48.690;8.952;2024-03-06T05:18:19;3.00;99.90
9107;DHT22;4589;48.690;8.952;2024-03-06T05:20:45;3.00;99.90
9107;DHT22;4589;48.690;8.952;2024-03-06T05:23:11;3.00;99.90
9107;DHT22;4589;48.690;8.952;2024-03-06T05:25:38;3.00;99.90
9107;DHT22;4589;48.690;8.952;2024-03-06T05:28:04;3.00;99.90
9107;DHT22;4589;48.690;8.952;2024-03-06T05:30:29;3.00;99.90
9107;DHT22;4589;48.690;8.952;2024-03-06T05:32:56;3.00;99.90
9107;DHT22;4589;48.690;8.952;2024-03-06T05:35:21;3.00;99.90
9107;DHT22;4589;48.690;8.952;2024-03-06T05:37:47;3.10;99.90
9107;DHT22;4589;48.690;8.952;2024-03-06T05:40:12;3.10;99.90
9107;DHT22;4589;48.690;8.952;2024-03-06T05:42:38;3.20;99.90
9107;DHT22;4589;48.690;8.952;2024-03-06T05:45:04;3.20;99.90
9107;DHT22;4589;48.690;8.952;2024-03-06T05:47:36;3.30;99.90
9107;DHT22;4589;48.690;8.952;2024-03-06T05:50:02;3.30;99.90
9107;DHT22;4589;48.690;8.952;2024-03-06T05:52:33;3.40;99.90
9107;DHT22;4589;48.690;8.952;2024-03-06T05:55:02;3.40;99.90
9107;DHT22;4589;48.690;8.952;2024-03-06T05:57:27;3.40;99.90
9107;DHT22;4589;48.690;8.952;2024-03-06T05:59:53;3.40;99.90
9107;DHT22;4589;48.690;8.952;2024-03-06T06:02:19;3.50;99.90
9107;DHT22;4589;48.690;8.952;2024-03-06T06:04:47;3.50;99.90
9107;DHT22;4589;48.690;8.952;2024-03-06T06:07:13;3.50;99.90
9107;DHT22;4589;48.690;8.952;2024-03-06T06:09:38;3.50;99.90
9107;DHT22;4589;48.690;8.952;2024-03-06T06:12:04;3.60;99.90
9107;DHT22;4589;48.690;8.952;2024-03-06T06:14:30;3.50;99.90
9107;DHT22;4589;48.690;8.952;2024-03-06T06:16:59;3.60;99.90
9107;DHT22;4589;48.690;8.952;2024-03-06T06:19:24;3.60;99.90
9107;DHT22;4589;48.690;8.952;2024-03-06T06:21:53;3.70;99.90
9107;DHT22;4589;48.690;8.952;2024-03-06T06:24:19;3.70;99.90
9107;DHT22;4589;48.690;8.952;2024-03-06T06:26:44;3.80;99.90
9107;DHT22;4589;48.690;8.952;2024-03-06T06:29:10;3.80;99.90
9107;DHT22;4589;48.690;8.952;2024-03-06T06:31:36;3.80;99.90
9107;DHT22;4589;48.690;8.952;2024-03-06T06:34:01;3.80;99.90
9107;DHT22;4589;48.690;8.952;2024-03-06T06:36:27;3.90;99.90
9107;DHT22;4589;48.690;8.952;2024-03-06T06:38:53;3.90;99.90
9107;DHT22;4589;48.690;8.952;2024-03-06T06:41:19;4.00;99.90
9107;DHT22;4589;48.690;8.952;2024-03-06T06:43:45;4.00;99.90
9107;DHT22;4589;48.690;8.952;2024-03-06T06:46:11;4.00;99.90
9107;DHT22;4589;48.690;8.952;2024-03-06T06:48:36;4.00;99.90
9107;DHT22;4589;48.690;8.952;2024-03-06T06:51:02;4.00;99.90
9107;DHT22;4589;48.690;8.952;2024-03-06T06:53:31;4.10;99.90
9107;DHT22;4589;48.690;8.952;2024-03-06T06:55:57;4.10;99.90
9107;DHT22;4589;48.690;8.952;2024-03-06T06:58:23;4.20;99.90
9107;DHT22;4589;48.690;8.952;2024-03-06T07:00:49;4.20;99.90
9107;DHT22;4589;48.690;8.952;2024-03-06T07:03:14;4.20;99.90
9107;DHT22;4589;48.690;8.952;2024-03-06T07:05:40;4.30;99.90
9107;DHT22;4589;48.690;8.952;2024-03-06T07:08:08;4.30;99.90
9107;DHT22;4589;48.690;8.952;2024-03-06T07:10:33;4.30;99.90
9107;DHT22;4589;48.690;8.952;2024-03-06T07:13:01;4.30;99.90
9107;DHT22;4589;48.690;8.952;2024-03-06T07:15:28;4.40;99.90
9107;DHT22;4589;48.690;8.952;2024-03-06T07:17:54;4.40;99.90
9107;DHT22;4589;48.690;8.952;2024-03-06T07:20:19;4.40;99.90
9107;DHT22;4589;48.690;8.952;2024-03-06T07:22:45;4.50;99.90
9107;DHT22;4589;48.690;8.952;2024-03-06T07:25:11;4.50;99.90
9107;DHT22;4589;48.690;8.952;2024-03-06T07:27:36;4.50;99.90
9107;DHT22;4589;48.690;8.952;2024-03-06T07:30:02;4.50;99.90
9107;DHT22;4589;48.690;8.952;2024-03-06T07:32:28;4.50;99.90
9107;DHT22;4589;48.690;8.952;2024-03-06T07:34:53;4.50;99.90
9107;DHT22;4589;48.690;8.952;2024-03-06T07:37:19;4.50;99.90
9107;DHT22;4589;48.690;8.952;2024-03-06T07:39:44;4.50;99.90
9107;DHT22;4589;48.690;8.952;2024-03-06T07:42:11;4.60;99.90
9107;DHT22;4589;48.690;8.952;2024-03-06T07:44:36;4.60;99.90
9107;DHT22;4589;48.690;8.952;2024-03-06T07:47:02;4.70;99.90
9107;DHT22;4589;48.690;8.952;2024-03-06T07:49:28;4.80;99.90
9107;DHT22;4589;48.690;8.952;2024-03-06T07:51:53;4.80;99.90
9107;DHT22;4589;48.690;8.952;2024-03-06T07:54:19;4.80;99.90
9107;DHT22;4589;48.690;8.952;2024-03-06T07:56:44;4.80;99.90
9107;DHT22;4589;48.690;8.952;2024-03-06T07:59:10;4.80;99.90
9107;DHT22;4589;48.690;8.952;2024-03-06T08:01:38;4.80;99.90
9107;DHT22;4589;48.690;8.952;2024-03-06T08:04:03;4.90;99.90
9107;DHT22;4589;48.690;8.952;2024-03-06T08:06:29;4.90;99.90
9107;DHT22;4589;48.690;8.952;2024-03-06T08:08:58;4.90;99.90
9107;DHT22;4589;48.690;8.952;2024-03-06T08:11:24;4.90;99.90
9107;DHT22;4589;48.690;8.952;2024-03-06T08:13:50;3.50;99.90
9107;DHT22;4589;48.690;8.952;2024-03-06T08:16:16;5.00;99.90
9107;DHT22;4589;48.690;8.952;2024-03-06T08:18:42;5.00;99.90
9107;DHT22;4589;48.690;8.952;2024-03-06T08:21:08;5.00;99.90
9107;DHT22;4589;48.690;8.952;2024-03-06T08:23:34;5.10;99.90
9107;DHT22;4589;48.690;8.952;2024-03-06T08:26:00;5.10;99.90
9107;DHT22;4589;48.690;8.952;2024-03-06T08:28:25;5.10;99.90
9107;DHT22;4589;48.690;8.952;2024-03-06T08:30:51;7.40;99.90
9107;DHT22;4589;48.690;8.952;2024-03-06T08:33:17;5.10;99.90
9107;DHT22;4589;48.690;8.952;2024-03-06T08:35:43;5.10;99.90
9107;DHT22;4589;48.690;8.952;2024-03-06T08:38:08;5.10;99.90
9107;DHT22;4589;48.690;8.952;2024-03-06T08:40:34;5.10;99.90
9107;DHT22;4589;48.690;8.952;2024-03-06T08:43:00;5.10;99.90
9107;DHT22;4589;48.690;8.952;2024-03-06T08:45:25;5.20;99.90
9107;DHT22;4589;48.690;8.952;2024-03-06T08:47:51;5.20;99.90
9107;DHT22;4589;48.690;8.952;2024-03-06T08:50:19;5.30;99.90
9107;DHT22;4589;48.690;8.952;2024-03-06T08:52:46;5.30;99.90
9107;DHT22;4589;48.690;8.952;2024-03-06T08:55:12;5.40;99.90
9107;DHT22;4589;48.690;8.952;2024-03-06T08:57:38;5.50;99.90
9107;DHT22;4589;48.690;8.952;2024-03-06T09:00:06;5.50;99.90
9107;DHT22;4589;48.690;8.952;2024-03-06T09:02:37;5.60;99.90
9107;DHT22;4589;48.690;8.952;2024-03-06T09:05:07;5.70;99.90
9107;DHT22;4589;48.690;8.952;2024-03-06T09:07:34;5.70;99.90
9107;DHT22;4589;48.690;8.952;2024-03-06T09:10:04;5.70;99.90
9107;DHT22;4589;48.690;8.952;2024-03-06T09:12:31;5.70;99.90
9107;DHT22;4589;48.690;8.952;2024-03-06T09:14:56;5.80;99.90
9107;DHT22;4589;48.690;8.952;2024-03-06T09:17:22;5.70;99.90
9107;DHT22;4589;48.690;8.952;2024-03-06T09:19:48;5.80;99.90
9107;DHT22;4589;48.690;8.952;2024-03-06T09:22:13;5.70;99.90
9107;DHT22;4589;48.690;8.952;2024-03-06T09:24:39;5.70;99.90
9107;DHT22;4589;48.690;8.952;2024-03-06T09:27:05;5.70;99.90
9107;DHT22;4589;48.690;8.952;2024-03-06T09:29:30;5.70;99.90
9107;DHT22;4589;48.690;8.952;2024-03-06T09:31:56;5.60;99.90
9107;DHT22;4589;48.690;8.952;2024-03-06T09:34:22;5.60;99.90
9107;DHT22;4589;48.690;8.952;2024-03-06T09:36:49;5.60;99.90
9107;DHT22;4589;48.690;8.952;2024-03-06T09:39:17;5.60;99.90
9107;DHT22;4589;48.690;8.952;2024-03-06T09:41:49;5.50;99.90
9107;DHT22;4589;48.690;8.952;2024-03-06T09:44:16;5.60;99.90
9107;DHT22;4589;48.690;8.952;2024-03-06T09:46:46;5.60;99.90
9107;DHT22;4589;48.690;8.952;2024-03-06T09:49:17;5.70;99.90
9107;DHT22;4589;48.690;8.952;2024-03-06T09:51:45;5.70;99.90
9107;DHT22;4589;48.690;8.952;2024-03-06T09:54:15;5.70;99.90
9107;DHT22;4589;48.690;8.952;2024-03-06T09:56:42;5.70;99.90
9107;DHT22;4589;48.690;8.952;2024-03-06T09:59:09;5.70;99.90
9107;DHT22;4589;48.690;8.952;2024-03-06T10:01:45;5.70;99.90
9107;DHT22;4589;48.690;8.952;2024-03-06T10:04:20;5.70;99.90
9107;DHT22;4589;48.690;8.952;2024-03-06T10:06:46;5.70;99.90
9107;DHT22;4589;48.690;8.952;2024-03-06T10:09:12;5.80;99.90
9107;DHT22;4589;48.690;8.952;2024-03-06T10:11:41;5.80;99.90
9107;DHT22;4589;48.690;8.952;2024-03-06T10:14:08;5.80;99.90
9107;DHT22;4589;48.690;8.952;2024-03-06T10:16:35;5.80;99.90
9107;DHT22;4589;48.690;8.952;2024-03-06T10:19:17;5.70;99.90
9107;DHT22;4589;48.690;8.952;2024-03-06T10:21:44;5.80;99.90
9107;DHT22;4589;48.690;8.952;2024-03-06T10:24:10;5.80;99.90
9107;DHT22;4589;48.690;8.952;2024-03-06T10:26:36;5.90;99.90
9107;DHT22;4589;48.690;8.952;2024-03-06T10:29:02;5.90;99.90
9107;DHT22;4589;48.690;8.952;2024-03-06T10:31:28;5.90;99.90
9107;DHT22;4589;48.690;8.952;2024-03-06T10:33:54;5.90;99.90
9107;DHT22;4589;48.690;8.952;2024-03-06T10:36:19;6.00;99.90
9107;DHT22;4589;48.690;8.952;2024-03-06T10:38:46;5.90;99.90
9107;DHT22;4589;48.690;8.952;2024-03-06T10:41:14;5.90;99.90
9107;DHT22;4589;48.690;8.952;2024-03-06T10:43:42;5.90;99.90
9107;DHT22;4589;48.690;8.952;2024-03-06T10:46:11;5.90;99.90
9107;DHT22;4589;48.690;8.952;2024-03-06T10:48:38;6.00;99.90
9107;DHT22;4589;48.690;8.952;2024-03-06T10:51:07;6.00;99.90
9107;DHT22;4589;48.690;8.952;2024-03-06T10:53:33;6.00;99.90
9107;DHT22;4589;48.690;8.952;2024-03-06T10:56:01;5.90;99.90
9107;DHT22;4589;48.690;8.952;2024-03-06T10:58:29;5.80;99.90
9107;DHT22;4589;48.690;8.952;2024-03-06T11:00:56;5.90;99.90
9107;DHT22;4589;48.690;8.952;2024-03-06T11:03:23;5.90;99.90
9107;DHT22;4589;48.690;8.952;2024-03-06T11:05:50;5.90;99.90
9107;DHT22;4589;48.690;8.952;2024-03-06T11:08:17;5.90;99.90
9107;DHT22;4589;48.690;8.952;2024-03-06T11:10:43;6.00;99.90
9107;DHT22;4589;48.690;8.952;2024-03-06T11:13:24;6.20;99.90
9107;DHT22;4589;48.690;8.952;2024-03-06T11:15:52;6.20;99.90
9107;DHT22;4589;48.690;8.952;2024-03-06T11:23:27;6.20;99.90
9107;DHT22;4589;48.690;8.952;2024-03-06T11:28:26;6.30;99.90
9107;DHT22;4589;48.690;8.952;2024-03-06T11:31:05;6.20;99.90
9107;DHT22;4589;48.690;8.952;2024-03-06T11:33:35;6.20;99.90
9107;DHT22;4589;48.690;8.952;2024-03-06T11:36:24;6.20;99.90
9107;DHT22;4589;48.690;8.952;2024-03-06T11:41:19;6.10;99.90
9107;DHT22;4589;48.690;8.952;2024-03-06T11:43:45;6.20;99.90
9107;DHT22;4589;48.690;8.952;2024-03-06T11:46:11;6.30;99.90
9107;DHT22;4589;48.690;8.952;2024-03-06T11:48:37;6.20;99.90
9107;DHT22;4589;48.690;8.952;2024-03-06T11:51:04;6.20;99.90
9107;DHT22;4589;48.690;8.952;2024-03-06T11:53:35;6.20;99.90
9107;DHT22;4589;48.690;8.952;2024-03-06T11:56:05;6.10;99.90
9107;DHT22;4589;48.690;8.952;2024-03-06T11:58:32;6.10;99.90
9107;DHT22;4589;48.690;8.952;2024-03-06T12:00:58;6.10;99.90
9107;DHT22;4589;48.690;8.952;2024-03-06T12:03:25;6.00;99.90
9107;DHT22;4589;48.690;8.952;2024-03-06T12:05:51;6.00;99.90
9107;DHT22;4589;48.690;8.952;2024-03-06T12:08:17;6.00;99.90
9107;DHT22;4589;48.690;8.952;2024-03-06T12:10:43;5.90;99.90
9107;DHT22;4589;48.690;8.952;2024-03-06T12:13:10;5.90;99.90
9107;DHT22;4589;48.690;8.952;2024-03-06T12:15:36;5.90;99.90
9107;DHT22;4589;48.690;8.952;2024-03-06T12:18:02;5.80;99.90
9107;DHT22;4589;48.690;8.952;2024-03-06T12:20:27;5.80;99.90
9107;DHT22;4589;48.690;8.952;2024-03-06T12:22:54;5.80;99.90
9107;DHT22;4589;48.690;8.952;2024-03-06T12:25:22;5.70;99.90
9107;DHT22;4589;48.690;8.952;2024-03-06T12:27:49;5.70;99.90
9107;DHT22;4589;48.690;8.952;2024-03-06T12:30:18;5.70;99.90
9107;DHT22;4589;48.690;8.952;2024-03-06T12:32:44;5.70;99.90
9107;DHT22;4589;48.690;8.952;2024-03-06T12:35:10;5.80;99.90
9107;DHT22;4589;48.690;8.952;2024-03-06T12:37:36;5.80;99.90
9107;DHT22;4589;48.690;8.952;2024-03-06T12:40:03;5.80;99.90
9107;DHT22;4589;48.690;8.952;2024-03-06T12:42:30;5.90;99.90
9107;DHT22;4589;48.690;8.952;2024-03-06T12:44:56;5.90;99.90
9107;DHT22;4589;48.690;8.952;2024-03-06T12:47:22;5.90;99.90
9107;DHT22;4589;48.690;8.952;2024-03-06T12:49:48;5.80;99.90
9107;DHT22;4589;48.690;8.952;2024-03-06T12:52:13;5.80;99.90
9107;DHT22;4589;48.690;8.952;2024-03-06T12:54:39;5.80;99.90
9107;DHT22;4589;48.690;8.952;2024-03-06T12:57:05;5.80;99.90
9107;DHT22;4589;48.690;8.952;2024-03-06T12:59:30;5.80;99.90
9107;DHT22;4589;48.690;8.952;2024-03-06T13:01:56;5.70;99.90
9107;DHT22;4589;48.690;8.952;2024-03-06T13:04:22;5.70;99.90
9107;DHT22;4589;48.690;8.952;2024-03-06T13:06:48;5.80;99.90
9107;DHT22;4589;48.690;8.952;2024-03-06T13:09:13;5.80;99.90
9107;DHT22;4589;48.690;8.952;2024-03-06T13:11:40;5.80;99.90
9107;DHT22;4589;48.690;8.952;2024-03-06T13:14:07;5.80;99.90
9107;DHT22;4589;48.690;8.952;2024-03-06T13:16:35;5.80;99.90
9107;DHT22;4589;48.690;8.952;2024-03-06T13:19:01;5.80;99.90
9107;DHT22;4589;48.690;8.952;2024-03-06T13:21:28;5.80;99.90
9107;DHT22;4589;48.690;8.952;2024-03-06T13:23:54;5.80;99.90
9107;DHT22;4589;48.690;8.952;2024-03-06T13:26:19;5.80;99.90
9107;DHT22;4589;48.690;8.952;2024-03-06T13:28:46;5.80;99.90
9107;DHT22;4589;48.690;8.952;2024-03-06T13:31:12;5.80;99.90
9107;DHT22;4589;48.690;8.952;2024-03-06T13:33:38;5.80;99.90
9107;DHT22;4589;48.690;8.952;2024-03-06T13:36:04;5.90;99.90
9107;DHT22;4589;48.690;8.952;2024-03-06T13:38:29;6.00;99.90
9107;DHT22;4589;48.690;8.952;2024-03-06T13:40:55;6.00;99.90
9107;DHT22;4589;48.690;8.952;2024-03-06T13:43:20;6.00;99.90
9107;DHT22;4589;48.690;8.952;2024-03-06T13:45:49;6.10;99.90
9107;DHT22;4589;48.690;8.952;2024-03-06T13:48:15;6.10;99.90
9107;DHT22;4589;48.690;8.952;2024-03-06T13:50:43;6.10;99.90
9107;DHT22;4589;48.690;8.952;2024-03-06T13:53:10;6.20;99.90
9107;DHT22;4589;48.690;8.952;2024-03-06T13:55:36;6.10;99.90
9107;DHT22;4589;48.690;8.952;2024-03-06T13:58:01;6.20;99.90
9107;DHT22;4589;48.690;8.952;2024-03-06T14:00:27;6.30;99.90
9107;DHT22;4589;48.690;8.952;2024-03-06T14:02:53;6.30;99.90
9107;DHT22;4589;48.690;8.952;2024-03-06T14:05:19;6.30;99.90
9107;DHT22;4589;48.690;8.952;2024-03-06T14:07:52;6.20;99.90
9107;DHT22;4589;48.690;8.952;2024-03-06T14:10:18;6.10;99.90
9107;DHT22;4589;48.690;8.952;2024-03-06T14:12:48;6.10;99.90
9107;DHT22;4589;48.690;8.952;2024-03-06T14:15:18;6.10;99.90
9107;DHT22;4589;48.690;8.952;2024-03-06T14:17:44;6.20;99.90
9107;DHT22;4589;48.690;8.952;2024-03-06T14:20:11;6.30;99.90
9107;DHT22;4589;48.690;8.952;2024-03-06T14:22:41;6.20;99.90
9107;DHT22;4589;48.690;8.952;2024-03-06T14:25:07;6.20;99.90
9107;DHT22;4589;48.690;8.952;2024-03-06T14:27:33;6.10;99.90
9107;DHT22;4589;48.690;8.952;2024-03-06T14:30:01;6.10;99.90
9107;DHT22;4589;48.690;8.952;2024-03-06T14:32:28;6.10;99.90
9107;DHT22;4589;48.690;8.952;2024-03-06T14:34:54;6.10;99.90
9107;DHT22;4589;48.690;8.952;2024-03-06T14:37:19;6.10;99.90
9107;DHT22;4589;48.690;8.952;2024-03-06T14:39:45;6.10;99.90
9107;DHT22;4589;48.690;8.952;2024-03-06T14:42:11;6.10;99.90
9107;DHT22;4589;48.690;8.952;2024-03-06T14:44:37;6.00;99.90
9107;DHT22;4589;48.690;8.952;2024-03-06T14:49:28;6.00;99.90
9107;DHT22;4589;48.690;8.952;2024-03-06T14:51:54;6.00;99.90
9107;DHT22;4589;48.690;8.952;2024-03-06T14:54:21;5.90;99.90
9107;DHT22;4589;48.690;8.952;2024-03-06T14:56:48;5.90;99.90
9107;DHT22;4589;48.690;8.952;2024-03-06T14:59:14;5.90;99.90
9107;DHT22;4589;48.690;8.952;2024-03-06T15:01:39;5.90;99.90
9107;DHT22;4589;48.690;8.952;2024-03-06T15:04:05;5.90;99.90
9107;DHT22;4589;48.690;8.952;2024-03-06T15:06:30;5.90;99.90
9107;DHT22;4589;48.690;8.952;2024-03-06T15:08:57;5.90;99.90
9107;DHT22;4589;48.690;8.952;2024-03-06T15:11:22;5.90;99.90
9107;DHT22;4589;48.690;8.952;2024-03-06T15:13:49;5.80;99.90
9107;DHT22;4589;48.690;8.952;2024-03-06T15:16:16;5.80;99.90
9107;DHT22;4589;48.690;8.952;2024-03-06T15:18:41;5.80;99.90
9107;DHT22;4589;48.690;8.952;2024-03-06T15:21:07;5.80;99.90
9107;DHT22;4589;48.690;8.952;2024-03-06T15:23:34;5.80;99.90
9107;DHT22;4589;48.690;8.952;2024-03-06T15:25:59;5.80;99.90
9107;DHT22;4589;48.690;8.952;2024-03-06T15:28:25;5.80;99.90
9107;DHT22;4589;48.690;8.952;2024-03-06T15:30:50;5.80;99.90
9107;DHT22;4589;48.690;8.952;2024-03-06T15:33:16;5.80;99.90
9107;DHT22;4589;48.690;8.952;2024-03-06T15:35:42;5.80;99.90
9107;DHT22;4589;48.690;8.952;2024-03-06T15:38:08;5.90;99.90
9107;DHT22;4589;48.690;8.952;2024-03-06T15:40:34;5.90;99.90
9107;DHT22;4589;48.690;8.952;2024-03-06T15:42:59;5.90;99.90
9107;DHT22;4589;48.690;8.952;2024-03-06T15:45:25;5.90;99.90
9107;DHT22;4589;48.690;8.952;2024-03-06T15:47:50;5.90;99.90
9107;DHT22;4589;48.690;8.952;2024-03-06T15:50:16;5.90;99.90
9107;DHT22;4589;48.690;8.952;2024-03-06T15:52:41;5.90;99.90
9107;DHT22;4589;48.690;8.952;2024-03-06T15:55:08;5.80;99.90
9107;DHT22;4589;48.690;8.952;2024-03-06T15:57:36;5.80;99.90
9107;DHT22;4589;48.690;8.952;2024-03-06T16:00:04;5.90;99.90
9107;DHT22;4589;48.690;8.952;2024-03-06T16:02:30;5.80;99.90
9107;DHT22;4589;48.690;8.952;2024-03-06T16:04:56;5.80;99.90
9107;DHT22;4589;48.690;8.952;2024-03-06T16:07:21;5.80;99.90
9107;DHT22;4589;48.690;8.952;2024-03-06T16:09:47;5.80;99.90
9107;DHT22;4589;48.690;8.952;2024-03-06T16:12:16;5.70;99.90
9107;DHT22;4589;48.690;8.952;2024-03-06T16:14:41;5.70;99.90
9107;DHT22;4589;48.690;8.952;2024-03-06T16:17:07;5.70;99.90
9107;DHT22;4589;48.690;8.952;2024-03-06T16:19:33;5.70;99.90
9107;DHT22;4589;48.690;8.952;2024-03-06T16:22:00;5.70;99.90
9107;DHT22;4589;48.690;8.952;2024-03-06T16:24:27;5.70;99.90